Terminal Aerodrome Forecast
Issued by NWS Pittsburgh, PA

Current Version | Previous Version | Graphics & Text | Print | Product List | Glossary On
Versions: 1 2 3 4 5 6 7 8 9 10 11 12 13 14 15 16 17 18 19 20 21 22 23 24 25 26 27 28 29
000
FTUS41 KPBZ 230200 AAA
TAFPIT
TAF AMD
KPIT 230221Z 2302/2406 21003KT P6SM SKC
     FM230900 00000KT 5SM BR SKC
     FM231500 25011G16KT P6SM SCT030 BKN100
     FM231800 28012G18KT 5SM -SHRA VCTS BKN035CB
     FM232200 30009G15KT P6SM SCT030
     FM240300 33006KT P6SM SCT030=

USA.gov is the U.S. government's official web portal to all federal, state and local government web resources and services.